Jamestown, TN

7:36 AM CDT on October 21, 2014 (GMT -0500)
Highlands @ BSF | Change Station
CLOSE
Current Station
Personal Weather Station
Location: Jamestown, TN
Elevation: 1637 ft
Nearby Weather Stations

Elev 1637 ft 36.49 °N, 84.86 °W | Updated 6 minutes ago

Clear
Clear
48.0 °F
Feels Like 48 °F
N
0.0
Wind Variable Wind from NNW

Today
High -- | Low -- °F
--% Chance of Precip.
Yesterday
High -- | Low -- °F
Precip. -- in
6:52 AM 5:55 PM
Waning Crescent, 6% visible
Pressure 30.01 in
Visibility 7.0 miles
Clouds Clear
Windchill 48 °F
Dew Point 46 °F
Humidity 93%
Rainfall 0.00 in
Snow Depth Not available.
UV 0 out of 12
Pollen 1.60 out of 12
Air Quality Not available.
Flu Activity Not available.
METAR KCSV 211153Z AUTO 25003KT 7SM CLR 09/07 A3003 RMK AO2 SLP163 T00890072 10117 20083 52006

More Conditions Fewer Conditions

Pressure 30.01 in
Visibility 7.0 miles
Clouds Clear
Windchill 48 °F
Dew Point 46 °F
Humidity 93%
Rainfall 0.00 in
Snow Depth Not available.
UV 0 out of 12
Pollen 1.60 out of 12
Air Quality Not available.
Flu Activity Not available.
METAR KCSV 211153Z AUTO 25003KT 7SM CLR 09/07 A3003 RMK AO2 SLP163 T00890072 10117 20083 52006

More Conditions Fewer Conditions

10-Day Weather Forecast

Almanac

Astronomy

Oct. 21, 2014 Rise Set
Actual Time 6:52 AM CDT 5:55 PM CDT
Civil Twilight 6:26 AM CDT 6:21 PM CDT
Nautical Twilight 5:56 AM CDT 6:51 PM CDT
Astronomical Twilight 5:26 AM CDT 7:21 PM CDT
Moon 4:39 AM CDT 4:46 PM CDT
Length of Visible Light 11h 55m
Length of Day
11h 03m
Tomorrow will be 2m 10s shorter.
Waning Crescent, 6% of the Moon is Illuminated
Today
Waning Crescent
Oct 23
New
Oct 30
First Quarter
Nov 6
Full
Nov 14
Last Quarter

Today's Extremes

State Highs State Lows

Community

WunderPhotos

Upload Photos

1,763,647 photos uploaded!

Nearby

Snow Depth

Station Depth Elevation
No new snow has been reported.

Earthquake Activity

City Distance Mag. Time & Date
No recent earthquake activity has been reported nearby.
Minimum magnitude displayed is 2.5.

Coastal Water Temperatures

Place Temperature
No Stations Reporting

Nearby Weather Stations